createdAt,value
2018-03-11T00:00:18.775Z,12.60
2018-03-11T00:01:18.758Z,14.20
2018-03-11T00:02:18.764Z,13.10
2018-03-11T00:03:18.720Z,13.50
2018-03-11T00:04:18.709Z,14.20
2018-03-11T00:05:18.687Z,12.40
2018-03-11T00:06:18.674Z,13.10
2018-03-11T00:07:18.654Z,12.60
2018-03-11T00:08:18.638Z,14.10
2018-03-11T00:09:18.644Z,15.10
2018-03-11T00:10:18.602Z,12.70
2018-03-11T00:11:18.586Z,14.00
2018-03-11T00:12:18.576Z,15.10
2018-03-11T00:13:18.565Z,12.40
2018-03-11T00:14:18.537Z,14.20
2018-03-11T00:15:18.519Z,15.30
2018-03-11T00:16:18.499Z,13.70
2018-03-11T00:17:18.486Z,17.60
2018-03-11T00:18:18.474Z,14.80
2018-03-11T00:19:18.446Z,15.50
2018-03-11T00:20:18.436Z,12.00
2018-03-11T00:21:18.413Z,14.90
2018-03-11T00:22:18.405Z,13.70
2018-03-11T00:23:18.379Z,14.10
2018-03-11T00:24:18.679Z,13.20
2018-03-11T00:25:18.346Z,14.10
2018-03-11T00:26:18.331Z,13.40
2018-03-11T00:27:18.313Z,13.60
2018-03-11T00:28:18.435Z,15.10
2018-03-11T00:29:18.334Z,14.50
2018-03-11T00:30:18.260Z,14.10
2018-03-11T00:31:18.330Z,13.00
2018-03-11T00:32:18.223Z,13.10
2018-03-11T00:33:18.210Z,12.90
2018-03-11T00:34:18.193Z,15.50
2018-03-11T00:35:18.172Z,16.10
2018-03-11T00:36:18.155Z,16.10
2018-03-11T00:37:18.143Z,13.90
2018-03-11T00:38:18.123Z,17.20
2018-03-11T00:39:18.111Z,13.00
2018-03-11T00:40:18.095Z,14.20
2018-03-11T00:41:18.069Z,16.20
2018-03-11T00:42:18.062Z,13.60
2018-03-11T00:43:18.044Z,12.50
2018-03-11T00:44:18.023Z,14.50
2018-03-11T00:45:18.009Z,14.80
2018-03-11T00:46:17.983Z,13.90
2018-03-11T00:47:18.020Z,14.60
2018-03-11T00:48:17.950Z,14.60
2018-03-11T00:49:17.940Z,13.90
2018-03-11T00:50:17.913Z,15.70
2018-03-11T00:51:17.900Z,13.20
2018-03-11T00:52:17.891Z,13.60
2018-03-11T00:53:17.863Z,14.80
2018-03-11T00:54:17.846Z,13.90
2018-03-11T00:55:17.830Z,13.60
2018-03-11T00:56:17.813Z,14.00
2018-03-11T00:57:17.862Z,13.60
2018-03-11T00:58:17.779Z,13.80
2018-03-11T00:59:17.768Z,15.00
2018-03-11T01:00:17.743Z,13.20
2018-03-11T01:01:17.725Z,14.00
2018-03-11T01:02:17.713Z,15.90
2018-03-11T01:03:17.690Z,13.10
2018-03-11T01:04:17.673Z,14.60
2018-03-11T01:05:17.666Z,16.60
2018-03-11T01:06:17.640Z,14.50
2018-03-11T01:07:17.622Z,14.10
2018-03-11T01:08:17.609Z,15.20
2018-03-11T01:09:17.587Z,14.30
2018-03-11T01:10:17.580Z,16.10
2018-03-11T01:11:17.558Z,14.00
2018-03-11T01:12:17.538Z,15.80
2018-03-11T01:13:17.530Z,16.40
2018-03-11T01:14:17.507Z,16.10
2018-03-11T01:15:17.490Z,16.60
2018-03-11T01:16:17.478Z,15.80
2018-03-11T01:17:17.488Z,14.80
2018-03-11T01:18:17.442Z,14.70
2018-03-11T01:19:17.418Z,16.00
2018-03-11T01:20:17.403Z,17.00
2018-03-11T01:21:17.387Z,17.00
2018-03-11T01:22:17.368Z,15.40
2018-03-11T01:23:17.349Z,14.30
2018-03-11T01:24:17.336Z,13.60
2018-03-11T01:25:17.317Z,14.50
2018-03-11T01:26:17.299Z,14.30
2018-03-11T01:27:17.282Z,15.10
2018-03-11T01:28:17.266Z,16.10
2018-03-11T01:29:17.247Z,13.60
2018-03-11T01:30:17.237Z,16.00
2018-03-11T01:31:17.216Z,14.80
2018-03-11T01:32:17.205Z,15.70
2018-03-11T01:33:17.184Z,15.20
2018-03-11T01:34:17.165Z,16.90
2018-03-11T01:35:17.144Z,14.60
2018-03-11T01:36:17.128Z,15.50
2018-03-11T01:37:17.110Z,14.30
2018-03-11T01:38:17.101Z,15.50
2018-03-11T01:39:17.079Z,14.40
2018-03-11T01:40:17.059Z,14.70
2018-03-11T01:41:17.044Z,15.50
2018-03-11T01:42:17.023Z,14.80
2018-03-11T01:43:17.014Z,16.90
2018-03-11T01:44:16.995Z,17.20
2018-03-11T01:45:16.977Z,15.50
2018-03-11T01:46:16.956Z,16.30
2018-03-11T01:47:17.000Z,14.90
2018-03-11T01:48:16.932Z,16.30
2018-03-11T01:49:16.906Z,17.30
2018-03-11T01:50:16.890Z,16.70
2018-03-11T01:51:16.874Z,17.80
2018-03-11T01:52:16.854Z,18.20
2018-03-11T01:53:16.844Z,16.80
2018-03-11T01:54:16.818Z,16.40
2018-03-11T01:55:16.803Z,16.60
2018-03-11T01:56:16.790Z,18.40
2018-03-11T01:57:16.765Z,16.20
2018-03-11T01:58:16.753Z,18.20
2018-03-11T01:59:16.738Z,16.80
2018-03-11T02:00:16.722Z,17.20
2018-03-11T02:01:16.697Z,17.10
2018-03-11T02:02:16.685Z,19.50
2018-03-11T02:03:16.669Z,18.90
2018-03-11T02:04:16.644Z,17.50
2018-03-11T02:05:16.627Z,20.30
2018-03-11T02:06:16.630Z,17.70
2018-03-11T02:07:16.594Z,17.90
2018-03-11T02:08:16.575Z,16.60
2018-03-11T02:09:16.607Z,18.90
2018-03-11T02:10:16.542Z,19.70
2018-03-11T02:11:16.519Z,18.80
2018-03-11T02:12:16.505Z,19.50
2018-03-11T02:13:16.498Z,17.90
2018-03-11T02:14:16.471Z,20.00
2018-03-11T02:15:16.450Z,22.10
2018-03-11T02:16:16.434Z,20.20
2018-03-11T02:17:16.517Z,21.30
2018-03-11T02:18:16.399Z,24.70
2018-03-11T02:19:16.390Z,28.90
2018-03-11T02:20:16.365Z,26.70
2018-03-11T02:21:16.346Z,29.90
2018-03-11T02:22:16.328Z,27.50
2018-03-11T02:23:16.309Z,23.20
2018-03-11T02:24:16.302Z,25.80
2018-03-11T02:25:16.275Z,23.30
2018-03-11T02:26:16.286Z,24.70
2018-03-11T02:27:16.238Z,21.80
2018-03-11T02:28:16.222Z,21.70
2018-03-11T02:29:16.211Z,23.10
2018-03-11T02:30:16.196Z,22.00
2018-03-11T02:31:16.169Z,21.80
2018-03-11T02:32:16.150Z,22.50
2018-03-11T02:33:16.134Z,20.90
2018-03-11T02:34:16.127Z,23.20
2018-03-11T02:35:16.106Z,22.10
2018-03-11T02:36:16.135Z,22.90
2018-03-11T02:37:16.065Z,21.50
2018-03-11T02:38:16.048Z,19.30
2018-03-11T02:39:16.030Z,24.20
2018-03-11T02:40:16.057Z,21.20
2018-03-11T02:41:15.997Z,25.10
2018-03-11T02:42:15.985Z,21.50
2018-03-11T02:43:15.970Z,23.00
2018-03-11T02:44:15.947Z,22.20
2018-03-11T02:45:15.923Z,21.20
2018-03-11T02:46:15.903Z,20.30
2018-03-11T02:47:15.887Z,24.50
2018-03-11T02:48:15.875Z,22.90
2018-03-11T02:49:15.848Z,23.30
2018-03-11T02:50:15.831Z,23.40
2018-03-11T02:51:15.815Z,24.10
2018-03-11T02:52:15.796Z,24.50
2018-03-11T02:53:15.778Z,23.90
2018-03-11T02:54:15.761Z,24.10
2018-03-11T02:55:15.751Z,24.70
2018-03-11T02:56:15.726Z,27.10
2018-03-11T02:57:15.714Z,24.60
2018-03-11T02:58:15.740Z,25.50
2018-03-11T02:59:15.670Z,22.50
2018-03-11T03:00:15.655Z,26.50
2018-03-11T03:01:15.634Z,24.70
2018-03-11T03:02:15.617Z,21.90
2018-03-11T03:03:15.607Z,29.00
2018-03-11T03:04:15.588Z,25.40
2018-03-11T03:05:15.613Z,21.80
2018-03-11T03:06:15.545Z,23.10
2018-03-11T03:07:15.528Z,25.70
2018-03-11T03:08:15.527Z,26.50
2018-03-11T03:09:15.496Z,26.10
2018-03-11T03:10:15.477Z,26.70
2018-03-11T03:11:15.454Z,29.30
2018-03-11T03:12:15.483Z,25.20
2018-03-11T03:13:15.419Z,24.50
2018-03-11T03:14:15.418Z,25.70
2018-03-11T03:15:15.384Z,25.10
2018-03-11T03:16:15.365Z,24.50
2018-03-11T03:17:15.348Z,28.00
2018-03-11T03:18:15.336Z,29.30
2018-03-11T03:19:15.313Z,29.40
2018-03-11T03:20:15.294Z,29.40
2018-03-11T03:21:15.272Z,26.30
2018-03-11T03:22:15.256Z,24.70
2018-03-11T03:23:15.238Z,28.90
2018-03-11T03:24:15.223Z,27.80
2018-03-11T03:25:15.213Z,29.50
2018-03-11T03:26:15.184Z,27.70
2018-03-11T03:27:15.167Z,25.80
2018-03-11T03:28:15.272Z,29.90
2018-03-11T03:29:15.130Z,28.00
2018-03-11T03:30:15.111Z,27.20
2018-03-11T03:31:15.145Z,27.90
2018-03-11T03:32:15.074Z,31.50
2018-03-11T03:33:15.056Z,32.70
2018-03-11T03:34:15.041Z,27.50
2018-03-11T03:35:15.020Z,25.50
2018-03-11T03:36:15.009Z,29.40
2018-03-11T03:37:14.979Z,23.70
2018-03-11T03:38:14.962Z,27.30
2018-03-11T03:39:14.945Z,29.30
2018-03-11T03:40:14.925Z,26.60
2018-03-11T03:41:14.909Z,25.80
2018-03-11T03:42:14.890Z,29.10
2018-03-11T03:43:14.872Z,31.70
2018-03-11T03:44:14.854Z,27.20
2018-03-11T03:45:14.834Z,32.10
2018-03-11T03:46:14.819Z,29.70
2018-03-11T03:47:14.800Z,31.60
2018-03-11T03:48:14.778Z,27.20
2018-03-11T03:49:14.763Z,30.30
2018-03-11T03:50:14.744Z,28.00
2018-03-11T03:51:14.724Z,30.00
2018-03-11T03:52:14.728Z,26.00
2018-03-11T03:53:14.689Z,30.20
2018-03-11T03:54:14.669Z,32.10
2018-03-11T03:55:14.663Z,29.40
2018-03-11T03:56:14.633Z,30.60
2018-03-11T03:57:14.620Z,30.80
2018-03-11T03:58:14.603Z,29.80
2018-03-11T03:59:14.577Z,32.90
2018-03-11T04:00:14.558Z,29.60
2018-03-11T04:01:14.541Z,32.60
2018-03-11T04:02:14.522Z,30.50
2018-03-11T04:03:14.511Z,32.10
2018-03-11T04:04:14.487Z,32.00
2018-03-11T04:05:14.467Z,29.70
2018-03-11T04:06:14.448Z,29.60
2018-03-11T04:07:14.428Z,29.00
2018-03-11T04:08:14.411Z,27.20
2018-03-11T04:09:14.391Z,29.00
2018-03-11T04:10:14.376Z,32.00
2018-03-11T04:11:14.510Z,29.20
2018-03-11T04:12:14.345Z,29.50
2018-03-11T04:13:14.318Z,29.50
2018-03-11T04:14:14.322Z,29.60
2018-03-11T04:15:14.281Z,29.90
2018-03-11T04:16:14.261Z,29.80
2018-03-11T04:17:14.246Z,29.00
2018-03-11T04:18:14.233Z,30.60
2018-03-11T04:19:14.208Z,28.60
2018-03-11T04:20:14.196Z,30.50
2018-03-11T04:21:14.169Z,34.00
2018-03-11T04:22:14.156Z,32.20
2018-03-11T04:23:14.137Z,32.80
2018-03-11T04:24:14.117Z,33.80
2018-03-11T04:25:14.096Z,32.30
2018-03-11T04:26:14.078Z,32.90
2018-03-11T04:27:14.058Z,30.30
2018-03-11T04:28:14.045Z,31.00
2018-03-11T04:29:14.025Z,31.10
2018-03-11T04:30:14.012Z,31.20
2018-03-11T04:31:13.994Z,31.40
2018-03-11T04:32:13.963Z,31.70
2018-03-11T04:33:13.950Z,31.70
2018-03-11T04:34:13.926Z,34.30
2018-03-11T04:35:13.909Z,33.80
2018-03-11T04:36:13.889Z,33.20
2018-03-11T04:37:13.873Z,33.90
2018-03-11T04:38:13.854Z,31.20
2018-03-11T04:39:13.834Z,31.80
2018-03-11T04:40:13.817Z,34.40
2018-03-11T04:41:13.798Z,33.80
2018-03-11T04:42:13.790Z,35.80
2018-03-11T04:43:13.843Z,35.60
2018-03-11T04:44:13.742Z,35.10
2018-03-11T04:45:13.722Z,36.00
2018-03-11T04:46:13.704Z,32.80
2018-03-11T04:47:13.682Z,33.80
2018-03-11T04:48:13.676Z,35.60
2018-03-11T04:49:13.653Z,31.50
2018-03-11T04:50:13.635Z,33.60
2018-03-11T04:51:13.611Z,33.70
2018-03-11T04:52:13.599Z,37.40
2018-03-11T04:53:13.640Z,35.50
2018-03-11T04:54:13.554Z,35.10
2018-03-11T04:55:13.533Z,34.10
2018-03-11T04:56:13.546Z,33.30
2018-03-11T04:57:13.495Z,34.60
2018-03-11T04:58:13.476Z,33.50
2018-03-11T04:59:13.459Z,33.60
2018-03-11T05:00:13.440Z,36.10
2018-03-11T05:01:13.421Z,34.00
2018-03-11T05:02:13.400Z,35.30
2018-03-11T05:03:13.389Z,34.50
2018-03-11T05:04:13.364Z,33.40
2018-03-11T05:05:13.342Z,37.10
2018-03-11T05:06:13.324Z,35.50
2018-03-11T05:07:13.305Z,34.00
2018-03-11T05:08:13.284Z,34.90
2018-03-11T05:09:13.269Z,37.00
2018-03-11T05:10:13.258Z,34.50
2018-03-11T05:11:13.230Z,37.40
2018-03-11T05:12:13.210Z,39.40
2018-03-11T05:13:13.200Z,35.90
2018-03-11T05:14:13.171Z,35.10
2018-03-11T05:15:13.152Z,35.50
2018-03-11T05:16:13.192Z,37.80
2018-03-11T05:17:13.118Z,37.00
2018-03-11T05:18:13.099Z,35.00
2018-03-11T05:19:13.080Z,37.80
2018-03-11T05:20:13.059Z,35.70
2018-03-11T05:21:13.038Z,34.30
2018-03-11T05:22:13.021Z,36.60
2018-03-11T05:23:13.000Z,36.30
2018-03-11T05:24:12.983Z,36.70
2018-03-11T05:25:12.961Z,39.50
2018-03-11T05:26:12.950Z,40.70
2018-03-11T05:27:12.930Z,37.30
2018-03-11T05:28:12.903Z,35.80
2018-03-11T05:29:12.888Z,40.60
2018-03-11T05:30:12.867Z,36.90
2018-03-11T05:31:12.848Z,36.90
2018-03-11T05:32:12.827Z,35.00
2018-03-11T05:33:12.807Z,36.30
2018-03-11T05:34:12.804Z,37.90
2018-03-11T05:35:12.777Z,39.10
2018-03-11T05:36:12.762Z,37.10
2018-03-11T05:37:12.735Z,36.20
2018-03-11T05:38:12.710Z,34.00
2018-03-11T05:39:12.708Z,31.60
2018-03-11T05:40:12.684Z,33.00
2018-03-11T05:41:12.663Z,34.80
2018-03-11T05:42:12.651Z,35.30
2018-03-11T05:43:12.634Z,33.30
2018-03-11T05:44:12.600Z,40.60
2018-03-11T05:45:12.577Z,42.30
2018-03-11T05:46:12.590Z,47.30
2018-03-11T05:47:12.538Z,45.90
2018-03-11T05:48:12.520Z,44.70
2018-03-11T05:49:12.507Z,44.30
2018-03-11T05:50:12.483Z,44.70
2018-03-11T05:51:12.472Z,45.50
2018-03-11T05:52:12.444Z,41.40
2018-03-11T05:53:12.425Z,40.70
2018-03-11T05:54:12.406Z,45.40
2018-03-11T05:55:12.384Z,40.90
2018-03-11T05:56:12.499Z,45.20
2018-03-11T05:57:12.348Z,40.60
2018-03-11T05:58:12.326Z,38.70
2018-03-11T05:59:12.309Z,39.50
2018-03-11T06:00:12.288Z,41.80
2018-03-11T06:01:12.318Z,37.30
2018-03-11T06:02:12.255Z,38.60
2018-03-11T06:03:12.232Z,40.30
2018-03-11T06:04:12.216Z,39.10
2018-03-11T06:05:12.192Z,37.50
2018-03-11T06:06:12.173Z,40.50
2018-03-11T06:07:12.152Z,39.30
2018-03-11T06:08:12.138Z,42.00
2018-03-11T06:09:12.136Z,40.80
2018-03-11T06:10:12.095Z,44.80
2018-03-11T06:11:12.075Z,41.00
2018-03-11T06:12:12.057Z,39.90
2018-03-11T06:13:12.036Z,36.00
2018-03-11T06:14:12.022Z,40.80
2018-03-11T06:15:12.000Z,42.10
2018-03-11T06:16:11.982Z,35.30
2018-03-11T06:17:11.961Z,33.60
2018-03-11T06:18:11.940Z,36.60
2018-03-11T06:19:11.922Z,35.70
2018-03-11T06:20:11.903Z,38.50
2018-03-11T06:21:11.983Z,39.40
2018-03-11T06:22:11.862Z,37.60
2018-03-11T06:23:11.863Z,35.80
2018-03-11T06:24:11.821Z,34.30
2018-03-11T06:25:11.803Z,36.00
2018-03-11T06:26:11.782Z,36.80
2018-03-11T06:27:11.765Z,34.30
2018-03-11T06:28:11.743Z,36.10
2018-03-11T06:29:11.724Z,33.40
2018-03-11T06:30:11.708Z,32.20
2018-03-11T06:31:11.684Z,31.20
2018-03-11T06:32:11.664Z,30.10
2018-03-11T06:33:11.650Z,32.30
2018-03-11T06:34:11.630Z,31.20
2018-03-11T06:35:11.609Z,29.10
2018-03-11T06:36:11.590Z,30.80
2018-03-11T06:37:11.567Z,30.40
2018-03-11T06:38:11.549Z,31.60
2018-03-11T06:39:11.528Z,32.00
2018-03-11T06:40:11.507Z,31.50
2018-03-11T06:41:11.495Z,30.30
2018-03-11T06:42:11.468Z,28.90
2018-03-11T06:43:11.448Z,28.90
2018-03-11T06:44:11.479Z,26.90
2018-03-11T06:45:11.411Z,26.10
2018-03-11T06:46:11.389Z,30.60
2018-03-11T06:47:11.371Z,27.50
2018-03-11T06:48:11.350Z,28.90
2018-03-11T06:49:11.333Z,26.20
2018-03-11T06:50:11.442Z,28.90
2018-03-11T06:51:11.291Z,24.80
2018-03-11T06:52:11.329Z,27.80
2018-03-11T06:53:11.259Z,25.70
2018-03-11T06:54:11.236Z,24.20
2018-03-11T06:55:11.216Z,22.90
2018-03-11T06:56:11.195Z,25.70
2018-03-11T06:57:11.183Z,24.10
2018-03-11T06:58:11.271Z,27.60
2018-03-11T06:59:11.135Z,25.20
2018-03-11T07:00:11.117Z,27.10
2018-03-11T07:01:11.154Z,23.20
2018-03-11T07:02:11.081Z,21.30
2018-03-11T07:03:11.079Z,22.60
2018-03-11T07:04:11.049Z,21.60
2018-03-11T07:05:11.027Z,22.00
2018-03-11T07:06:11.004Z,20.50
2018-03-11T07:07:10.985Z,22.40
2018-03-11T07:08:10.968Z,23.10
2018-03-11T07:09:10.948Z,21.40
2018-03-11T07:10:10.929Z,19.40
2018-03-11T07:11:10.929Z,20.00
2018-03-11T07:12:10.894Z,20.50
2018-03-11T07:13:10.874Z,19.00
2018-03-11T07:14:10.854Z,19.20
2018-03-11T07:15:10.837Z,21.80
2018-03-11T07:16:10.818Z,19.30
2018-03-11T07:17:10.796Z,20.60
2018-03-11T07:18:10.789Z,18.10
2018-03-11T07:19:10.767Z,18.30
2018-03-11T07:20:10.743Z,18.30
2018-03-11T07:21:10.723Z,20.00
2018-03-11T07:22:10.725Z,19.40
2018-03-11T07:23:10.687Z,19.40
2018-03-11T07:24:10.667Z,18.30
2018-03-11T07:25:10.653Z,20.20
2018-03-11T07:26:10.640Z,17.70
2018-03-11T07:27:10.643Z,17.00
2018-03-11T07:28:10.595Z,15.70
2018-03-11T07:29:10.575Z,17.10
2018-03-11T07:30:10.558Z,17.50
2018-03-11T07:31:10.543Z,16.80
2018-03-11T07:32:10.522Z,16.50
2018-03-11T07:33:10.501Z,16.90
2018-03-11T07:34:10.487Z,16.20
2018-03-11T07:35:10.466Z,17.40
2018-03-11T07:36:10.454Z,16.90
2018-03-11T07:37:10.429Z,15.80
2018-03-11T07:38:10.411Z,17.10
2018-03-11T07:39:10.468Z,17.10
2018-03-11T07:40:10.372Z,16.50
2018-03-11T07:41:10.357Z,17.90
2018-03-11T07:42:10.339Z,15.90
2018-03-11T07:43:10.350Z,15.20
2018-03-11T07:44:10.302Z,16.60
2018-03-11T07:45:10.285Z,15.80
2018-03-11T07:46:10.264Z,15.00
2018-03-11T07:47:10.249Z,17.30
2018-03-11T07:48:10.228Z,16.40
2018-03-11T07:49:10.212Z,14.90
2018-03-11T07:50:10.198Z,15.10
2018-03-11T07:51:10.176Z,16.50
2018-03-11T07:52:10.312Z,19.00
2018-03-11T07:53:10.138Z,15.90
2018-03-11T07:54:10.123Z,16.80
2018-03-11T07:55:10.103Z,15.10
2018-03-11T07:56:10.086Z,17.80
2018-03-11T07:57:10.067Z,17.00
2018-03-11T07:58:10.052Z,16.50
2018-03-11T07:59:10.034Z,14.90
2018-03-11T08:00:10.216Z,16.40
2018-03-11T08:01:09.997Z,16.80
2018-03-11T08:02:09.981Z,16.20
2018-03-11T08:03:09.973Z,17.30
2018-03-11T08:04:09.947Z,15.20
2018-03-11T08:05:09.933Z,14.80
2018-03-11T08:06:09.917Z,15.00
2018-03-11T08:07:09.888Z,14.40
2018-03-11T08:08:09.880Z,14.40
2018-03-11T08:09:09.861Z,15.80
2018-03-11T08:10:09.847Z,17.50
2018-03-11T08:11:09.817Z,15.40
2018-03-11T08:12:09.801Z,19.00
2018-03-11T08:13:09.899Z,15.90
2018-03-11T08:14:09.774Z,16.20
2018-03-11T08:15:09.750Z,16.60
2018-03-11T08:16:09.786Z,15.60
2018-03-11T08:17:09.716Z,15.70
2018-03-11T08:18:09.705Z,15.50
2018-03-11T08:19:09.682Z,14.50
2018-03-11T08:20:09.664Z,16.20
2018-03-11T08:21:09.645Z,17.00
2018-03-11T08:22:09.640Z,17.30
2018-03-11T08:23:09.605Z,16.10
2018-03-11T08:24:09.593Z,19.80
2018-03-11T08:25:09.569Z,16.70
2018-03-11T08:26:09.562Z,16.30
2018-03-11T08:27:09.539Z,18.40
2018-03-11T08:28:09.529Z,16.40
2018-03-11T08:29:09.519Z,15.90
2018-03-11T08:30:09.523Z,16.00
2018-03-11T08:31:09.467Z,17.50
2018-03-11T08:32:09.598Z,18.30
2018-03-11T08:33:09.441Z,15.90
2018-03-11T08:34:09.443Z,17.40
2018-03-11T08:35:09.431Z,17.60
2018-03-11T08:36:09.411Z,18.20
2018-03-11T08:37:09.360Z,17.30
2018-03-11T08:38:09.345Z,17.00
2018-03-11T08:39:09.326Z,16.40
2018-03-11T08:40:09.325Z,16.60
2018-03-11T08:41:09.288Z,16.80
2018-03-11T08:42:09.277Z,18.10
2018-03-11T08:43:09.259Z,17.60
2018-03-11T08:44:09.247Z,20.60
2018-03-11T08:45:09.236Z,18.30
2018-03-11T08:46:09.204Z,17.30
2018-03-11T08:47:09.194Z,19.80
2018-03-11T08:48:09.323Z,19.40
2018-03-11T08:49:09.154Z,22.60
2018-03-11T08:50:09.142Z,17.40
2018-03-11T08:51:09.113Z,17.30
2018-03-11T08:52:09.110Z,20.40
2018-03-11T08:53:09.081Z,16.80
2018-03-11T08:54:09.063Z,18.10
2018-03-11T08:55:09.052Z,17.40
2018-03-11T08:56:09.038Z,19.90
2018-03-11T08:57:09.021Z,19.80
2018-03-11T08:58:09.059Z,19.50
2018-03-11T08:59:09.004Z,21.20
2018-03-11T09:00:08.963Z,19.70
2018-03-11T09:01:08.945Z,21.50
2018-03-11T09:02:08.931Z,20.10
2018-03-11T09:03:08.913Z,20.30
2018-03-11T09:04:08.894Z,18.00
2018-03-11T09:05:08.880Z,20.10
2018-03-11T09:06:08.862Z,18.30
2018-03-11T09:07:08.852Z,20.70
2018-03-11T09:08:08.832Z,22.00
2018-03-11T09:09:08.809Z,20.70
2018-03-11T09:10:08.794Z,22.00
2018-03-11T09:11:08.786Z,21.20
2018-03-11T09:12:08.760Z,19.90
2018-03-11T09:13:08.739Z,20.80
2018-03-11T09:14:08.733Z,19.50
2018-03-11T09:15:08.708Z,20.40
2018-03-11T09:16:08.689Z,21.00
2018-03-11T09:17:08.671Z,20.10
2018-03-11T09:18:08.655Z,19.50
2018-03-11T09:19:08.637Z,21.50
2018-03-11T09:20:08.620Z,21.50
2018-03-11T09:21:08.613Z,21.90
2018-03-11T09:22:08.588Z,19.80
2018-03-11T09:23:08.569Z,22.70
2018-03-11T09:24:08.553Z,21.50
2018-03-11T09:25:08.538Z,20.50
2018-03-11T09:26:08.520Z,21.40
2018-03-11T09:27:08.557Z,21.20
2018-03-11T09:28:08.489Z,21.10
2018-03-11T09:29:08.469Z,21.40
2018-03-11T09:30:08.459Z,20.10
2018-03-11T09:31:08.437Z,21.60
2018-03-11T09:32:08.418Z,20.20
2018-03-11T09:33:08.412Z,20.10
2018-03-11T09:34:08.392Z,20.80
2018-03-11T09:35:08.367Z,19.70
2018-03-11T09:36:08.362Z,19.90
2018-03-11T09:37:08.341Z,20.20
2018-03-11T09:38:08.323Z,17.90
2018-03-11T09:39:08.307Z,19.50
2018-03-11T09:40:08.290Z,19.60
2018-03-11T09:41:08.281Z,22.20
2018-03-11T09:42:08.257Z,19.90
2018-03-11T09:43:08.240Z,19.00
2018-03-11T09:44:08.273Z,20.10
2018-03-11T09:45:08.224Z,18.40
2018-03-11T09:46:08.208Z,18.60
2018-03-11T09:47:08.182Z,19.40
2018-03-11T09:48:08.176Z,18.40
2018-03-11T09:49:08.147Z,18.30
2018-03-11T09:50:08.136Z,17.60
2018-03-11T09:51:08.117Z,18.10
2018-03-11T09:52:08.121Z,18.40
2018-03-11T09:53:08.098Z,16.00
2018-03-11T09:54:08.101Z,18.00
2018-03-11T09:55:08.057Z,18.00
2018-03-11T09:56:08.044Z,15.00
2018-03-11T09:57:08.032Z,17.30
2018-03-11T09:58:08.013Z,15.80
2018-03-11T09:59:07.997Z,16.70
2018-03-11T10:00:07.996Z,16.80
2018-03-11T10:01:07.972Z,14.10
2018-03-11T10:02:07.963Z,18.30
2018-03-11T10:03:07.934Z,15.80
2018-03-11T10:04:07.988Z,15.90
2018-03-11T10:05:07.909Z,17.60
2018-03-11T10:06:07.895Z,17.90
2018-03-11T10:07:07.873Z,15.00
2018-03-11T10:08:07.866Z,18.40
2018-03-11T10:09:07.848Z,17.90
2018-03-11T10:10:07.831Z,14.20
2018-03-11T10:11:07.817Z,15.80
2018-03-11T10:12:07.818Z,13.40
2018-03-11T10:13:07.777Z,13.50
2018-03-11T10:14:07.762Z,12.90
2018-03-11T10:15:07.745Z,13.20
2018-03-11T10:16:07.735Z,17.00
2018-03-11T10:17:07.715Z,15.60
2018-03-11T10:18:07.725Z,12.60
2018-03-11T10:19:07.683Z,14.40
2018-03-11T10:20:07.665Z,13.60
2018-03-11T10:21:07.657Z,12.80
2018-03-11T10:22:07.646Z,14.20
2018-03-11T10:23:07.626Z,14.60
2018-03-11T10:24:07.624Z,16.70
2018-03-11T10:25:07.591Z,15.00
2018-03-11T10:26:07.570Z,14.40
2018-03-11T10:27:07.553Z,15.80
2018-03-11T10:28:07.542Z,13.40
2018-03-11T10:29:07.532Z,12.60
2018-03-11T10:30:07.542Z,14.50
2018-03-11T10:31:07.492Z,12.50
2018-03-11T10:32:07.475Z,12.60
2018-03-11T10:33:07.460Z,13.00
2018-03-11T10:34:07.522Z,12.50
2018-03-11T10:35:07.430Z,14.30
2018-03-11T10:36:07.409Z,13.30
2018-03-11T10:37:07.426Z,14.50
2018-03-11T10:38:07.379Z,13.80
2018-03-11T10:39:07.361Z,12.00
2018-03-11T10:40:07.361Z,12.90
2018-03-11T10:41:07.330Z,11.90
2018-03-11T10:42:07.319Z,12.10
2018-03-11T10:43:07.305Z,11.90
2018-03-11T10:44:07.294Z,11.50
2018-03-11T10:45:07.280Z,11.50
2018-03-11T10:46:07.256Z,12.50
2018-03-11T10:47:07.248Z,13.60
2018-03-11T10:48:07.228Z,14.00
2018-03-11T10:49:07.289Z,11.60
2018-03-11T10:50:07.297Z,12.20
2018-03-11T10:51:07.187Z,12.50
2018-03-11T10:52:07.174Z,14.50
2018-03-11T10:53:07.153Z,12.30
2018-03-11T10:54:07.157Z,10.90
2018-03-11T10:55:07.121Z,12.20
2018-03-11T10:56:07.125Z,12.70
2018-03-11T10:57:07.106Z,9.40
2018-03-11T10:58:07.082Z,13.10
2018-03-11T10:59:07.067Z,10.90
2018-03-11T11:00:07.054Z,10.40
2018-03-11T11:01:07.037Z,11.60
2018-03-11T11:02:07.018Z,12.30
2018-03-11T11:03:07.004Z,9.90
2018-03-11T11:04:07.027Z,11.00
2018-03-11T11:05:07.001Z,11.70
2018-03-11T11:06:06.982Z,9.30
2018-03-11T11:07:06.962Z,10.40
2018-03-11T11:08:06.931Z,10.70
2018-03-11T11:09:06.934Z,13.60
2018-03-11T11:10:06.918Z,9.80
2018-03-11T11:11:06.978Z,9.10
2018-03-11T11:12:06.886Z,10.00
2018-03-11T11:13:06.875Z,10.20
2018-03-11T11:14:06.849Z,10.20
2018-03-11T11:15:06.850Z,13.30
2018-03-11T11:16:06.837Z,10.60
2018-03-11T11:17:06.807Z,9.10
2018-03-11T11:18:06.798Z,8.80
2018-03-11T11:19:06.943Z,9.60
2018-03-11T11:20:06.764Z,9.60
2018-03-11T11:21:06.751Z,8.40
2018-03-11T11:22:06.762Z,8.20
2018-03-11T11:23:06.723Z,8.40
2018-03-11T11:24:06.719Z,7.80
2018-03-11T11:25:06.704Z,9.50
2018-03-11T11:26:06.683Z,8.60
2018-03-11T11:27:06.665Z,7.10
2018-03-11T11:28:06.657Z,6.30
2018-03-11T11:29:06.637Z,7.30
2018-03-11T11:30:06.632Z,5.40
2018-03-11T11:31:06.613Z,4.70
2018-03-11T11:32:06.629Z,4.50
2018-03-11T11:33:06.581Z,6.70
2018-03-11T11:34:06.592Z,5.20
2018-03-11T11:35:06.561Z,5.60
2018-03-11T11:36:06.542Z,4.20
2018-03-11T11:37:06.538Z,4.50
2018-03-11T11:38:06.515Z,4.60
2018-03-11T11:39:06.502Z,6.00
2018-03-11T11:40:06.486Z,3.50
2018-03-11T11:41:06.483Z,4.60
2018-03-11T11:42:06.468Z,4.10
2018-03-11T11:43:06.445Z,5.20
2018-03-11T11:44:06.432Z,4.10
2018-03-11T11:45:06.415Z,3.80
2018-03-11T11:46:06.551Z,4.10
2018-03-11T11:47:06.391Z,7.60
2018-03-11T11:48:06.374Z,4.90
2018-03-11T11:49:06.390Z,6.20
2018-03-11T11:50:06.348Z,3.50
2018-03-11T11:51:06.332Z,5.00
2018-03-11T11:52:06.321Z,3.90
2018-03-11T11:53:06.308Z,4.00
2018-03-11T11:54:06.289Z,6.20
2018-03-11T11:55:06.275Z,4.10
2018-03-11T11:56:06.259Z,4.20
2018-03-11T11:57:06.245Z,3.90
2018-03-11T11:58:06.241Z,5.20
2018-03-11T11:59:06.236Z,4.00
2018-03-11T12:00:06.206Z,5.60
2018-03-11T12:01:06.191Z,8.50
2018-03-11T12:02:06.187Z,4.80
2018-03-11T12:03:06.163Z,4.90
2018-03-11T12:04:06.149Z,4.30
2018-03-11T12:05:06.132Z,5.40
2018-03-11T12:06:06.118Z,7.70
2018-03-11T12:07:06.115Z,5.00
2018-03-11T12:08:06.091Z,4.90
2018-03-11T12:09:06.079Z,4.00
2018-03-11T12:10:06.078Z,4.90
2018-03-11T12:11:06.048Z,5.20
2018-03-11T12:12:06.101Z,4.40
2018-03-11T12:13:06.028Z,5.20
2018-03-11T12:14:06.010Z,5.70
2018-03-11T12:15:06.011Z,6.40
2018-03-11T12:16:05.981Z,3.90
2018-03-11T12:17:05.969Z,5.60
2018-03-11T12:18:05.976Z,4.90
2018-03-11T12:19:05.942Z,5.30
2018-03-11T12:20:05.934Z,5.40
2018-03-11T12:21:05.926Z,8.00
2018-03-11T12:22:05.904Z,4.60
2018-03-11T12:23:05.891Z,5.50
2018-03-11T12:24:05.883Z,5.30
2018-03-11T12:25:05.860Z,4.70
2018-03-11T12:26:05.845Z,5.60
2018-03-11T12:27:05.842Z,7.30
2018-03-11T12:28:05.818Z,5.10
2018-03-11T12:29:05.798Z,4.60
2018-03-11T12:30:05.796Z,4.00
2018-03-11T12:31:05.771Z,5.40
2018-03-11T12:32:05.763Z,3.90
2018-03-11T12:33:05.739Z,3.10
2018-03-11T12:34:05.727Z,4.40
2018-03-11T12:35:05.715Z,5.90
2018-03-11T12:36:05.706Z,4.60
2018-03-11T12:37:05.692Z,3.70
2018-03-11T12:38:05.673Z,3.80
2018-03-11T12:39:05.655Z,5.30
2018-03-11T12:40:05.640Z,3.10
2018-03-11T12:41:05.624Z,3.50
2018-03-11T12:42:05.613Z,5.20
2018-03-11T12:43:05.602Z,4.10
2018-03-11T12:44:05.592Z,4.10
2018-03-11T12:45:05.566Z,3.10
2018-03-11T12:46:05.554Z,5.20
2018-03-11T12:47:05.558Z,4.00
2018-03-11T12:48:05.522Z,5.40
2018-03-11T12:49:05.508Z,4.30
2018-03-11T12:50:05.508Z,4.20
2018-03-11T12:51:05.483Z,4.90
2018-03-11T12:52:05.463Z,3.50
2018-03-11T12:53:05.453Z,4.60
2018-03-11T12:54:05.494Z,4.20
2018-03-11T12:55:05.430Z,4.70
2018-03-11T12:56:05.408Z,4.50